Time;durP1;ratioP1;P1;durP2;ratioP2;P2;SDS_P1;SDS_P2;PMS_P1;PMS_P2;Temp;Humidity;BMP_temperature;BMP_pressure;BME280_temperature;BME280_humidity;BME280_pressure;Samples;Min_cycle;Max_cycle;Signal;HPM_P1;HPM_P2
2024/04/23 00:01:52;0.00;0.00;0.62;0.00;0.00;0.62;3.20;2.80;;;21.40;17.20;;;;;;2047293;62;20525;-63
2024/04/23 00:04:37;0.00;0.00;0.62;0.00;0.00;0.62;3.30;3.00;;;21.40;17.30;;;;;;2047757;62;20529;-61
2024/04/23 00:07:24;0.00;0.00;0.62;0.00;0.00;0.62;4.27;2.90;;;21.40;17.30;;;;;;2047737;62;20471;-61
2024/04/23 00:10:08;0.00;0.00;0.62;0.00;0.00;0.62;3.77;3.20;;;21.40;17.30;;;;;;2047382;62;20468;-61
2024/04/23 00:12:53;0.00;0.00;0.62;0.00;0.00;0.62;4.17;2.80;;;21.40;17.30;;;;;;2047638;62;20468;-61
2024/04/23 00:15:38;0.00;0.00;0.62;0.00;0.00;0.62;3.90;2.73;;;21.40;17.30;;;;;;2047729;62;20529;-62
2024/04/23 00:18:23;0.00;0.00;0.62;0.00;0.00;0.62;3.40;2.60;;;21.40;17.30;;;;;;2047494;62;20549;-60
2024/04/23 00:21:07;0.00;0.00;0.62;0.00;0.00;0.62;3.77;2.77;;;21.30;17.20;;;;;;2047457;62;20518;-62
2024/04/23 00:23:54;0.00;0.00;0.62;0.00;0.00;0.62;3.70;2.50;;;21.30;17.20;;;;;;2047894;62;20510;-62
2024/04/23 00:26:39;0.00;0.00;0.62;0.00;0.00;0.62;3.40;3.07;;;21.30;17.20;;;;;;2043551;62;20542;-62
2024/04/23 00:29:24;0.00;0.00;0.62;0.00;0.00;0.62;3.63;3.00;;;21.30;17.20;;;;;;2047648;62;20549;-59
2024/04/23 00:32:08;0.00;0.00;0.62;0.00;0.00;0.62;3.50;2.47;;;21.40;17.30;;;;;;2047621;62;20501;-62
2024/04/23 00:34:53;0.00;0.00;0.62;0.00;0.00;0.62;2.97;2.67;;;21.30;17.30;;;;;;2047518;62;20451;-61
2024/04/23 00:37:38;0.00;0.00;0.62;0.00;0.00;0.62;4.20;2.70;;;21.30;17.30;;;;;;2047496;62;20466;-62
2024/04/23 00:40:27;0.00;0.00;0.62;0.00;0.00;0.62;2.77;2.47;;;21.30;17.30;;;;;;2047388;62;20553;-61
2024/04/23 00:43:12;0.00;0.00;0.62;0.00;0.00;0.62;3.40;2.57;;;21.30;17.30;;;;;;2047536;62;20729;-62
2024/04/23 00:46:04;0.00;0.00;0.62;0.00;0.00;0.62;3.30;2.50;;;21.30;17.30;;;;;;2047603;62;21008;-62
2024/04/23 00:48:49;0.00;0.00;0.62;0.00;0.00;0.62;2.63;2.20;;;21.30;17.30;;;;;;2047678;62;20475;-61
2024/04/23 00:51:34;0.00;0.00;0.62;0.00;0.00;0.62;2.90;2.60;;;21.30;17.30;;;;;;2047467;62;20452;-62
2024/04/23 00:54:22;0.00;0.00;0.62;0.00;0.00;0.62;2.70;2.17;;;21.30;17.30;;;;;;2047688;62;20533;-61
2024/04/23 00:57:10;0.00;0.00;0.62;0.00;0.00;0.62;3.97;2.87;;;21.30;17.30;;;;;;2047419;62;20460;-60
2024/04/23 00:59:55;0.00;0.00;0.62;0.00;0.00;0.62;2.77;2.20;;;21.20;17.20;;;;;;2047370;62;21016;-64
2024/04/23 01:02:40;0.00;0.00;0.62;0.00;0.00;0.62;2.30;2.03;;;21.30;17.30;;;;;;2047516;62;20459;-62
2024/04/23 01:05:25;0.00;0.00;0.62;0.00;0.00;0.62;3.07;2.37;;;21.20;17.30;;;;;;2047459;62;20549;-63
2024/04/23 01:08:09;0.00;0.00;0.62;0.00;0.00;0.62;3.67;2.30;;;21.20;17.30;;;;;;2047635;62;20476;-62
2024/04/23 01:10:54;0.00;0.00;0.62;0.00;0.00;0.62;4.10;2.30;;;21.20;17.30;;;;;;2047429;62;20462;-60
2024/04/23 01:13:42;0.00;0.00;0.62;0.00;0.00;0.62;2.93;2.43;;;21.20;17.30;;;;;;2042741;62;20456;-62
2024/04/23 01:16:31;0.00;0.00;0.62;0.00;0.00;0.62;2.80;2.23;;;21.20;17.30;;;;;;2046900;62;20521;-61
2024/04/23 01:19:25;0.00;0.00;0.62;0.00;0.00;0.62;2.87;2.43;;;21.20;17.30;;;;;;2046700;62;20532;-62
2024/04/23 01:22:14;0.00;0.00;0.62;0.00;0.00;0.62;2.57;2.00;;;21.20;17.90;;;;;;2046324;62;20870;-62
2024/04/23 01:25:05;0.00;0.00;0.62;0.00;0.00;0.62;3.33;1.93;;;21.20;17.30;;;;;;2046819;62;20515;-61
2024/04/23 01:27:53;0.00;0.00;0.62;0.00;0.00;0.62;3.50;2.27;;;21.20;17.30;;;;;;2046840;62;20507;-61
2024/04/23 01:30:38;0.00;0.00;0.62;0.00;0.00;0.62;2.60;2.20;;;21.20;17.30;;;;;;2042628;62;20472;-62
2024/04/23 01:33:24;0.00;0.00;0.62;0.00;0.00;0.62;3.60;2.40;;;21.20;17.30;;;;;;2046712;62;20481;-62
2024/04/23 01:36:10;0.00;0.00;0.62;0.00;0.00;0.62;2.63;2.17;;;21.20;17.30;;;;;;2047018;62;20534;-62
2024/04/23 01:38:56;0.00;0.00;0.62;0.00;0.00;0.62;4.80;2.50;;;21.20;17.30;;;;;;2046762;62;20496;-61
2024/04/23 01:41:42;0.00;0.00;0.62;0.00;0.00;0.62;4.50;2.23;;;21.20;17.30;;;;;;2046523;62;20604;-63
2024/04/23 01:44:31;0.00;0.00;0.62;0.00;0.00;0.62;3.00;2.67;;;21.20;17.30;;;;;;2046916;62;20468;-61
2024/04/23 01:47:16;0.00;0.00;0.62;0.00;0.00;0.62;3.13;2.30;;;21.10;17.30;;;;;;2046858;62;20459;-61
2024/04/23 01:50:02;0.00;0.00;0.62;0.00;0.00;0.62;2.23;1.80;;;21.10;17.30;;;;;;2046602;62;20452;-63
2024/04/23 01:52:47;0.00;0.00;0.62;0.00;0.00;0.62;2.23;2.03;;;21.10;17.30;;;;;;2041987;62;20472;-63
2024/04/23 01:55:32;0.00;0.00;0.62;0.00;0.00;0.62;2.77;1.90;;;21.10;17.30;;;;;;2046410;62;20456;-63
2024/04/23 01:58:17;0.00;0.00;0.62;0.00;0.00;0.62;2.20;1.90;;;21.10;17.30;;;;;;2046410;62;20456;-61
2024/04/23 02:01:05;0.00;0.00;0.62;0.00;0.00;0.62;3.17;1.80;;;21.10;17.30;;;;;;2046179;62;20492;-60
2024/04/23 02:03:51;0.00;0.00;0.62;0.00;0.00;0.62;2.30;2.10;;;21.10;17.30;;;;;;2046440;62;20929;-61
2024/04/23 02:06:36;0.00;0.00;0.62;0.00;0.00;0.62;3.27;2.03;;;21.10;17.30;;;;;;2046629;62;21056;-62
2024/04/23 02:09:21;0.00;0.00;0.62;0.00;0.00;0.62;3.27;2.10;;;21.10;17.30;;;;;;2046336;62;20460;-63
2024/04/23 02:12:10;0.00;0.00;0.62;0.00;0.00;0.62;2.50;1.90;;;21.10;17.30;;;;;;2046261;62;20468;-61
2024/04/23 02:14:56;0.00;0.00;0.62;0.00;0.00;0.62;3.50;2.43;;;21.10;17.30;;;;;;2046572;62;20464;-62
2024/04/23 02:17:43;0.00;0.00;0.62;0.00;0.00;0.62;2.47;1.90;;;21.10;17.30;;;;;;2046479;62;20464;-63
2024/04/23 02:20:28;0.00;0.00;0.62;0.00;0.00;0.62;4.20;2.50;;;21.00;17.20;;;;;;2046320;62;20507;-61
2024/04/23 02:23:13;0.00;0.00;0.62;0.00;0.00;0.62;3.17;2.40;;;21.10;17.30;;;;;;2046496;62;20567;-63
2024/04/23 02:25:58;0.00;0.00;0.62;0.00;0.00;0.62;2.30;1.90;;;21.10;17.30;;;;;;2046273;62;20538;-62
2024/04/23 02:28:43;0.00;0.00;0.62;0.00;0.00;0.62;3.17;2.17;;;21.00;17.80;;;;;;2046659;62;20467;-61
2024/04/23 02:31:28;0.00;0.00;0.62;0.00;0.00;0.62;2.37;2.17;;;21.10;17.30;;;;;;2046346;62;20521;-61
2024/04/23 02:34:15;0.00;0.00;0.62;0.00;0.00;0.62;2.40;1.93;;;21.10;17.30;;;;;;2046345;62;20468;-62
2024/04/23 02:37:00;0.00;0.00;0.62;0.00;0.00;0.62;2.60;2.20;;;21.00;17.80;;;;;;2046385;62;20518;-61
2024/04/23 02:39:45;0.00;0.00;0.62;0.00;0.00;0.62;2.50;1.90;;;21.00;17.30;;;;;;2042835;62;20476;-60
2024/04/23 02:42:30;0.00;0.00;0.62;0.00;0.00;0.62;3.03;2.07;;;21.00;17.20;;;;;;2046478;62;20459;-62
2024/04/23 02:45:15;0.00;0.00;0.62;0.00;0.00;0.62;3.50;2.40;;;21.00;17.20;;;;;;2046466;62;21037;-62
2024/04/23 02:48:00;0.00;0.00;0.62;0.00;0.00;0.62;3.77;2.23;;;21.00;17.20;;;;;;2046417;62;20480;-62
2024/04/23 02:50:48;0.00;0.00;0.62;0.00;0.00;0.62;2.83;2.27;;;21.00;17.20;;;;;;2046505;62;20522;-62
2024/04/23 02:53:32;0.00;0.00;0.62;0.00;0.00;0.62;2.10;1.70;;;21.00;17.30;;;;;;2046505;62;20981;-61
2024/04/23 02:56:17;0.00;0.00;0.62;0.00;0.00;0.62;3.20;2.50;;;21.00;17.30;;;;;;2046555;62;20554;-63
2024/04/23 02:59:02;0.00;0.00;0.62;0.00;0.00;0.62;2.80;2.30;;;21.00;17.20;;;;;;2044547;62;20555;-62
2024/04/23 03:01:47;0.00;0.00;0.62;0.00;0.00;0.62;3.27;2.40;;;21.00;17.80;;;;;;2046464;62;20530;-61
2024/04/23 03:04:32;0.00;0.00;0.62;0.00;0.00;0.62;3.13;2.10;;;21.00;17.20;;;;;;2046392;62;20459;-64
2024/04/23 03:07:20;0.00;0.00;0.62;0.00;0.00;0.62;2.70;1.80;;;21.00;17.20;;;;;;2046551;62;20456;-61
2024/04/23 03:10:06;0.00;0.00;0.62;0.00;0.00;0.62;6.83;2.27;;;21.00;17.20;;;;;;2046516;62;20502;-63
2024/04/23 03:12:51;0.00;0.00;0.62;0.00;0.00;0.62;2.30;2.10;;;21.00;17.30;;;;;;2046671;62;21033;-62
2024/04/23 03:15:36;0.00;0.00;0.62;0.00;0.00;0.62;3.10;2.00;;;20.90;17.70;;;;;;2046493;62;20502;-62
2024/04/23 03:18:20;0.00;0.00;0.62;0.00;0.00;0.62;3.60;2.43;;;20.90;17.20;;;;;;2046299;62;20472;-60
2024/04/23 03:21:05;0.00;0.00;0.62;0.00;0.00;0.62;2.63;2.00;;;21.00;17.30;;;;;;2046341;62;20522;-61
2024/04/23 03:23:52;0.00;0.00;0.62;0.00;0.00;0.62;3.27;2.30;;;20.90;17.20;;;;;;2042420;62;20450;-63
2024/04/23 03:26:37;0.00;0.00;0.62;0.00;0.00;0.62;3.80;2.43;;;20.90;17.20;;;;;;2046141;62;20460;-63
2024/04/23 03:29:21;0.00;0.00;0.62;0.00;0.00;0.62;5.73;2.40;;;20.90;17.20;;;;;;2046259;62;20820;-62
2024/04/23 03:32:06;0.00;0.00;0.62;0.00;0.00;0.62;2.90;2.17;;;20.90;17.20;;;;;;2045952;62;20542;-61
2024/04/23 03:34:51;0.00;0.00;0.62;0.00;0.00;0.62;2.80;2.30;;;20.90;17.20;;;;;;2046110;62;21079;-63
2024/04/23 03:37:35;0.00;0.00;0.62;0.00;0.00;0.62;4.30;2.27;;;20.90;17.20;;;;;;2046265;62;21030;-61
2024/04/23 03:40:22;0.00;0.00;0.62;0.00;0.00;0.62;3.47;2.40;;;20.90;17.20;;;;;;2040888;62;20462;-62
2024/04/23 03:43:07;0.00;0.00;0.62;0.00;0.00;0.62;2.00;1.73;;;20.90;17.20;;;;;;2041179;62;20498;-61
2024/04/23 03:45:52;0.00;0.00;0.62;0.00;0.00;0.62;2.80;2.27;;;20.90;17.20;;;;;;2041502;62;20465;-61
2024/04/23 03:48:37;0.00;0.00;0.62;0.00;0.00;0.62;2.53;1.87;;;20.90;17.30;;;;;;2040529;62;20462;-62
2024/04/23 03:51:22;0.00;0.00;0.62;0.00;0.00;0.62;2.80;2.20;;;20.80;17.20;;;;;;2040853;62;20534;-63
2024/04/23 03:54:06;0.00;0.00;0.62;0.00;0.00;0.62;3.17;2.50;;;20.80;17.20;;;;;;2041167;62;20983;-63
2024/04/23 03:56:53;0.00;0.00;0.62;0.00;0.00;0.62;2.90;2.50;;;20.80;17.20;;;;;;2041294;62;20519;-64
2024/04/23 03:59:38;0.00;0.00;0.62;0.00;0.00;0.62;2.83;1.80;;;20.80;17.20;;;;;;2041251;62;20493;-62
2024/04/23 04:08:31;0.00;0.00;0.62;0.00;0.00;0.62;3.17;2.20;;;20.80;17.80;;;;;;2041512;62;20927;-58
2024/04/23 04:11:16;0.00;0.00;0.62;0.00;0.00;0.62;3.37;2.50;;;20.80;17.20;;;;;;2040882;62;20477;-59
2024/04/23 04:14:03;0.00;0.00;0.62;0.00;0.00;0.62;2.33;2.13;;;20.80;17.20;;;;;;2041246;62;20523;-61
2024/04/23 04:16:48;0.00;0.00;0.62;0.00;0.00;0.62;3.50;2.40;;;20.80;17.30;;;;;;2041139;62;20466;-61
2024/04/23 04:19:32;0.00;0.00;0.62;0.00;0.00;0.62;2.93;2.63;;;20.80;17.30;;;;;;2041158;62;20482;-63
2024/04/23 04:22:17;0.00;0.00;0.62;0.00;0.00;0.62;3.43;2.40;;;20.80;17.30;;;;;;2041132;62;20473;-61
2024/04/23 04:25:03;0.00;0.00;0.62;0.00;0.00;0.62;2.20;1.90;;;20.80;17.30;;;;;;2041088;62;20961;-62
2024/04/23 04:27:48;0.00;0.00;0.62;0.00;0.00;0.62;2.57;2.10;;;20.80;17.30;;;;;;2041130;62;20501;-64
2024/04/23 04:30:35;0.00;0.00;0.62;0.00;0.00;0.62;2.47;2.00;;;20.70;17.20;;;;;;2048574;62;21033;-62
2024/04/23 04:33:20;0.00;0.00;0.62;0.00;0.00;0.62;2.47;2.13;;;20.70;17.20;;;;;;2051112;62;20478;-63
2024/04/23 04:36:05;0.00;0.00;0.62;0.00;0.00;0.62;2.53;2.30;;;20.70;17.20;;;;;;2051319;62;20843;-62
2024/04/23 04:38:50;0.00;0.00;0.62;0.00;0.00;0.62;2.60;2.33;;;20.70;17.20;;;;;;2050995;62;20508;-62
2024/04/23 04:41:35;0.00;0.00;0.62;0.00;0.00;0.62;3.60;2.43;;;20.70;17.20;;;;;;2051088;62;20543;-62
2024/04/23 04:44:19;0.00;0.00;0.62;0.00;0.00;0.62;6.90;2.37;;;20.70;17.20;;;;;;2051369;62;20947;-62
2024/04/23 04:47:07;0.00;0.00;0.62;0.00;0.00;0.62;3.53;2.80;;;20.70;17.30;;;;;;2051591;62;20455;-62
2024/04/23 04:49:51;0.00;0.00;0.62;0.00;0.00;0.62;2.50;2.10;;;20.70;17.20;;;;;;2051191;62;20528;-64
2024/04/23 04:52:36;0.00;0.00;0.62;0.00;0.00;0.62;2.87;2.20;;;20.70;17.30;;;;;;2051811;62;20911;-62
2024/04/23 04:55:20;0.00;0.00;0.62;0.00;0.00;0.62;3.20;2.43;;;20.70;17.30;;;;;;2051620;62;20458;-64
2024/04/23 04:58:05;0.00;0.00;0.62;0.00;0.00;0.62;2.63;2.07;;;20.70;17.30;;;;;;2045811;62;20467;-62
2024/04/23 05:00:51;0.00;0.00;0.62;0.00;0.00;0.62;2.60;2.10;;;20.70;17.80;;;;;;2046298;62;20463;-62
2024/04/23 05:03:39;0.00;0.00;0.62;0.00;0.00;0.62;3.30;2.57;;;20.70;17.30;;;;;;2046629;62;20870;-61
2024/04/23 05:06:23;0.00;0.00;0.62;0.00;0.00;0.62;3.30;2.43;;;20.70;17.30;;;;;;2042403;62;20533;-64
2024/04/23 05:09:08;0.00;0.00;0.62;0.00;0.00;0.62;3.30;2.20;;;20.70;17.30;;;;;;2046819;62;20492;-61
2024/04/23 05:11:53;0.00;0.00;0.62;0.00;0.00;0.62;3.40;1.90;;;20.60;17.20;;;;;;2046535;62;20989;-62
2024/04/23 05:14:38;0.00;0.00;0.62;0.00;0.00;0.62;3.07;2.33;;;20.70;17.30;;;;;;2046589;62;20530;-61
2024/04/23 05:17:22;0.00;0.00;0.62;0.00;0.00;0.62;2.40;2.00;;;20.70;17.30;;;;;;2046429;62;20475;-60
2024/04/23 05:20:11;0.00;0.00;0.62;0.00;0.00;0.62;3.80;2.67;;;20.70;17.40;;;;;;2046464;62;20460;-62
2024/04/23 05:22:56;0.00;0.00;0.62;0.00;0.00;0.62;3.43;2.20;;;20.60;17.30;;;;;;2046434;62;20456;-62
2024/04/23 05:25:41;0.00;0.00;0.62;0.00;0.00;0.62;3.40;2.43;;;20.60;17.30;;;;;;2046546;62;20456;-63
2024/04/23 05:28:25;0.00;0.00;0.62;0.00;0.00;0.62;3.23;2.30;;;20.70;17.40;;;;;;2046515;62;20536;-62
2024/04/23 05:34:14;0.00;0.00;0.62;0.00;0.00;0.62;6.47;2.33;;;20.60;17.30;;;;;;2046553;62;20471;-62
2024/04/23 05:37:01;0.00;0.00;0.62;0.00;0.00;0.62;2.80;2.40;;;20.70;17.40;;;;;;2046428;62;20928;-63
2024/04/23 05:39:45;0.00;0.00;0.62;0.00;0.00;0.62;3.83;2.97;;;20.60;17.40;;;;;;2046202;62;21070;-62
2024/04/23 05:42:30;0.00;0.00;0.62;0.00;0.00;0.62;3.27;2.50;;;20.60;17.40;;;;;;2046529;62;21090;-62
2024/04/23 05:45:15;0.00;0.00;0.62;0.00;0.00;0.62;2.70;2.30;;;20.70;17.50;;;;;;2045802;62;21023;-61
2024/04/23 05:48:56;0.00;0.00;0.62;0.00;0.00;0.62;2.80;2.53;;;20.70;17.40;;;;;;2047533;62;20457;-62
2024/04/23 05:52:58;0.00;0.00;0.62;0.00;0.00;0.62;3.10;2.70;;;20.60;17.40;;;;;;2051950;62;20516;-62
2024/04/23 05:56:05;0.00;0.00;0.62;0.00;0.00;0.62;3.67;3.03;;;20.60;17.40;;;;;;2043243;62;20445;-61
2024/04/23 05:58:49;0.00;0.00;0.62;0.00;0.00;0.62;3.67;3.00;;;20.60;17.40;;;;;;2041956;62;20548;-62
2024/04/23 06:01:34;0.00;0.00;0.62;0.00;0.00;0.62;4.20;3.37;;;20.60;17.50;;;;;;2041733;62;20512;-62
2024/04/23 06:04:19;0.00;0.00;0.62;0.00;0.00;0.62;4.67;4.07;;;20.60;17.50;;;;;;2041919;62;20829;-64
2024/04/23 06:07:04;0.00;0.00;0.62;0.00;0.00;0.62;6.23;3.30;;;20.60;17.50;;;;;;2037996;62;20855;-64
2024/04/23 06:09:49;0.00;0.00;0.62;0.00;0.00;0.62;7.23;3.57;;;20.60;17.50;;;;;;2037862;62;21143;-64
2024/04/23 06:12:36;0.00;0.00;0.62;0.00;0.00;0.62;5.30;4.10;;;20.60;17.50;;;;;;2042156;62;20511;-64
2024/04/23 06:15:21;0.00;0.00;0.62;0.00;0.00;0.62;4.93;4.00;;;20.60;17.50;;;;;;2041778;62;20464;-64
2024/04/23 06:18:06;0.00;0.00;0.62;0.00;0.00;0.62;5.73;5.00;;;20.70;17.60;;;;;;2042020;62;20520;-64
2024/04/23 06:20:54;0.00;0.00;0.62;0.00;0.00;0.62;7.10;5.30;;;20.70;17.60;;;;;;2041879;62;20527;-64
2024/04/23 06:23:39;0.00;0.00;0.62;0.00;0.00;0.62;7.97;6.57;;;20.70;18.10;;;;;;2041676;62;20465;-64
2024/04/23 06:26:25;0.00;0.00;0.62;0.00;0.00;0.62;7.60;6.47;;;20.60;17.50;;;;;;2041906;62;20477;-64
2024/04/23 06:29:12;0.00;0.00;0.62;0.00;0.00;0.62;9.93;7.57;;;20.70;17.60;;;;;;2041935;62;20466;-64
2024/04/23 06:31:57;0.00;0.00;0.62;0.00;0.00;0.62;7.13;6.20;;;20.60;17.60;;;;;;2041647;62;20491;-64
2024/04/23 06:34:43;0.00;0.00;0.62;0.00;0.00;0.62;8.77;6.67;;;20.70;17.70;;;;;;2042003;62;21010;-64
2024/04/23 06:37:27;0.00;0.00;0.62;0.00;0.00;0.62;7.33;6.47;;;20.70;17.70;;;;;;2041606;62;20469;-64
2024/04/23 06:40:12;0.00;0.00;0.62;0.00;0.00;0.62;8.03;6.30;;;20.70;17.70;;;;;;2041546;62;20557;-65
2024/04/23 06:42:57;0.00;0.00;0.62;0.00;0.00;0.62;8.80;6.60;;;20.70;17.60;;;;;;2041953;62;20474;-65
2024/04/23 06:45:45;0.00;0.00;0.62;0.00;0.00;0.62;8.33;7.40;;;20.70;17.70;;;;;;2037719;62;20458;-64
2024/04/23 06:48:29;0.00;0.00;0.62;0.00;0.00;0.62;8.00;6.70;;;20.70;17.70;;;;;;2041495;62;20478;-65
2024/04/23 06:51:14;0.00;0.00;0.62;0.00;0.00;0.62;10.77;7.80;;;20.70;17.60;;;;;;2039996;62;20537;-65
2024/04/23 06:53:59;0.00;0.00;0.62;0.00;0.00;0.62;10.50;7.50;;;20.70;17.70;;;;;;2041777;62;20535;-65
2024/04/23 06:56:43;0.00;0.00;0.62;0.00;0.00;0.62;9.50;7.60;;;20.70;17.70;;;;;;2041799;62;20874;-66
2024/04/23 06:59:28;0.00;0.00;0.62;0.00;0.00;0.62;10.33;8.07;;;20.70;17.70;;;;;;2041530;62;20885;-64
2024/04/23 07:02:15;0.00;0.00;0.62;0.00;0.00;0.62;9.23;7.67;;;20.70;17.70;;;;;;2041648;62;20516;-65
2024/04/23 07:05:00;0.00;0.00;0.62;0.00;0.00;0.62;10.50;7.50;;;20.70;17.70;;;;;;2041811;62;20526;-64
2024/04/23 07:07:45;0.00;0.00;0.62;0.00;0.00;0.62;8.70;7.37;;;20.70;17.70;;;;;;2041683;62;20536;-64
2024/04/23 07:10:31;0.00;0.00;0.62;0.00;0.00;0.62;8.33;7.10;;;20.70;17.70;;;;;;2041449;62;20473;-64
2024/04/23 07:13:15;0.00;0.00;0.62;0.00;0.00;0.62;8.10;7.00;;;20.70;17.70;;;;;;2041806;62;20520;-64
2024/04/23 07:16:00;0.00;0.00;0.62;0.00;0.00;0.62;9.13;7.40;;;20.70;17.70;;;;;;2041710;62;20461;-64
2024/04/23 07:18:48;0.00;0.00;0.62;0.00;0.00;0.62;11.03;7.40;;;20.70;17.70;;;;;;2041668;62;20474;-64
2024/04/23 07:21:32;0.00;0.00;0.62;0.00;0.00;0.62;9.50;7.70;;;20.70;17.70;;;;;;2041428;62;20645;-64
2024/04/23 07:24:17;0.00;0.00;0.62;0.00;0.00;0.62;8.93;7.63;;;20.70;17.70;;;;;;2037626;62;20528;-63
2024/04/23 07:27:02;0.00;0.00;0.62;0.00;0.00;0.62;8.47;7.53;;;20.80;17.80;;;;;;2044305;62;20472;-64
2024/04/23 07:29:46;0.00;0.00;0.62;0.00;0.00;0.62;10.87;8.60;;;20.80;17.80;;;;;;2046321;62;20538;-64
2024/04/23 07:32:31;0.00;0.00;0.62;0.00;0.00;0.62;8.90;7.30;;;20.80;17.80;;;;;;2046960;54;20472;-65
2024/04/23 07:35:18;0.00;0.00;0.62;0.00;0.00;0.62;11.50;7.30;;;20.80;17.80;;;;;;2046789;62;20456;-65
2024/04/23 07:38:07;0.00;0.00;0.62;0.00;0.00;0.62;8.87;7.00;;;20.80;17.80;;;;;;2046607;62;20530;-65
2024/04/23 07:40:51;0.00;0.00;0.62;0.00;0.00;0.62;8.37;6.23;;;20.80;17.80;;;;;;2046619;62;20533;-65
2024/04/23 07:43:36;0.00;0.00;0.62;0.00;0.00;0.62;8.60;6.57;;;20.80;17.80;;;;;;2046658;62;20472;-65
2024/04/23 07:46:21;0.00;0.00;0.62;0.00;0.00;0.62;10.13;7.10;;;20.80;17.80;;;;;;2046952;62;20475;-64
2024/04/23 07:49:05;0.00;0.00;0.62;0.00;0.00;0.62;9.43;7.23;;;20.80;17.80;;;;;;2046529;62;20483;-65
2024/04/23 07:51:53;0.00;0.00;0.62;0.00;0.00;0.62;8.07;6.90;;;20.80;17.80;;;;;;2046703;62;21013;-65
2024/04/23 07:54:37;0.00;0.00;0.62;0.00;0.00;0.62;9.03;6.73;;;20.80;17.80;;;;;;2046904;62;20859;-65
2024/04/23 07:57:22;0.00;0.00;0.62;0.00;0.00;0.62;9.60;7.17;;;20.80;17.80;;;;;;2046840;62;20452;-64
2024/04/23 08:00:08;0.00;0.00;0.62;0.00;0.00;0.62;9.27;6.57;;;20.80;17.80;;;;;;2046413;62;21017;-65
2024/04/23 08:02:54;0.00;0.00;0.62;0.00;0.00;0.62;12.30;7.50;;;20.80;17.80;;;;;;2046828;62;20503;-65
2024/04/23 08:05:39;0.00;0.00;0.62;0.00;0.00;0.62;10.17;7.30;;;20.80;17.80;;;;;;2046422;62;20532;-65
2024/04/23 08:08:26;0.00;0.00;0.62;0.00;0.00;0.62;8.07;6.50;;;20.80;17.80;;;;;;2046697;62;20459;-66
2024/04/23 08:11:11;0.00;0.00;0.62;0.00;0.00;0.62;9.47;6.40;;;20.80;17.80;;;;;;2046734;62;20508;-65
2024/04/23 08:13:56;0.00;0.00;0.62;0.00;0.00;0.62;11.40;7.20;;;20.80;17.80;;;;;;2046067;62;20561;-64
2024/04/23 08:16:41;0.00;0.00;0.62;0.00;0.00;0.62;8.67;7.30;;;20.80;17.80;;;;;;2046398;62;20467;-64
2024/04/23 08:19:27;0.00;0.00;0.62;0.00;0.00;0.62;8.13;5.97;;;20.90;17.90;;;;;;2045967;62;20472;-63
2024/04/23 08:22:12;0.00;0.00;0.62;0.00;0.00;0.62;7.83;6.10;;;20.80;17.80;;;;;;2041177;62;20543;-64
2024/04/23 08:24:59;0.00;0.00;0.62;0.00;0.00;0.62;8.10;5.90;;;20.80;17.80;;;;;;2041776;62;20464;-64
2024/04/23 08:27:47;0.00;0.00;0.62;0.00;0.00;0.62;8.87;7.80;;;20.90;17.90;;;;;;2042917;62;20484;-64
2024/04/23 08:30:32;0.00;0.00;0.62;0.00;0.00;0.62;8.73;6.17;;;20.80;17.80;;;;;;2042436;62;20464;-65
2024/04/23 08:33:17;0.00;0.00;0.62;0.00;0.00;0.62;9.00;7.10;;;20.90;17.90;;;;;;2046687;62;20869;-65
2024/04/23 08:36:02;0.00;0.00;0.62;0.00;0.00;0.62;8.57;6.23;;;20.90;17.90;;;;;;2046829;62;20460;-64
2024/04/23 08:38:47;0.00;0.00;0.62;0.00;0.00;0.62;9.30;7.30;;;20.90;17.90;;;;;;2046690;62;20460;-63
2024/04/23 08:41:39;0.00;0.00;0.62;0.00;0.00;0.62;11.60;6.90;;;20.90;17.90;;;;;;2041837;62;21022;-65
2024/04/23 08:44:29;0.00;0.00;0.62;0.00;0.00;0.62;7.70;6.40;;;20.90;17.90;;;;;;2041856;62;20523;-64
2024/04/23 08:47:15;0.00;0.00;0.62;0.00;0.00;0.62;7.87;6.63;;;20.90;17.90;;;;;;2041836;62;20572;-65
2024/04/23 08:50:01;0.00;0.00;0.62;0.00;0.00;0.62;8.47;6.70;;;20.90;17.90;;;;;;2041858;62;20951;-64
2024/04/23 08:52:48;0.00;0.00;0.62;0.00;0.00;0.62;7.97;7.03;;;20.90;17.90;;;;;;2042004;62;20883;-65
2024/04/23 08:55:37;0.00;0.00;0.62;0.00;0.00;0.62;9.40;7.97;;;20.90;17.90;;;;;;2037830;62;20623;-66
2024/04/23 08:58:25;0.00;0.00;0.62;0.00;0.00;0.62;9.70;7.30;;;20.90;17.90;;;;;;2041620;62;20474;-65
2024/04/23 09:01:13;0.00;0.00;0.62;0.00;0.00;0.62;10.83;8.03;;;20.90;17.90;;;;;;2041784;62;20861;-65
2024/04/23 09:04:03;0.00;0.00;0.62;0.00;0.00;0.62;9.43;7.87;;;20.90;17.90;;;;;;2041634;62;20457;-65
2024/04/23 09:06:50;0.00;0.00;0.62;0.00;0.00;0.62;9.57;7.53;;;20.90;17.90;;;;;;2041838;62;21084;-65
2024/04/23 09:09:34;0.00;0.00;0.62;0.00;0.00;0.62;8.37;6.90;;;20.90;17.90;;;;;;2044950;62;20494;-65
2024/04/23 09:12:19;0.00;0.00;0.62;0.00;0.00;0.62;10.00;8.20;;;20.90;18.00;;;;;;2041420;62;20466;-65
2024/04/23 09:15:07;0.00;0.00;0.62;0.00;0.00;0.62;9.33;7.77;;;20.90;18.00;;;;;;2041895;62;20544;-64
2024/04/23 09:17:55;0.00;0.00;0.62;0.00;0.00;0.62;8.77;7.87;;;21.00;18.00;;;;;;2041734;62;21115;-65
2024/04/23 09:20:40;0.00;0.00;0.62;0.00;0.00;0.62;10.23;7.80;;;21.00;18.00;;;;;;2037480;62;21064;-65
2024/04/23 09:23:27;0.00;0.00;0.62;0.00;0.00;0.62;9.40;7.80;;;21.00;18.00;;;;;;2041908;62;20473;-64
2024/04/23 09:26:12;0.00;0.00;0.62;0.00;0.00;0.62;8.50;7.40;;;21.00;18.00;;;;;;2041766;62;20467;-64
2024/04/23 09:28:57;0.00;0.00;0.62;0.00;0.00;0.62;8.97;7.50;;;21.00;18.00;;;;;;2041159;62;21089;-65
2024/04/23 09:31:45;0.00;0.00;0.62;0.00;0.00;0.62;10.90;7.43;;;21.00;18.00;;;;;;2041349;62;20462;-65
2024/04/23 09:34:30;0.00;0.00;0.62;0.00;0.00;0.62;8.47;7.37;;;21.00;18.00;;;;;;2041004;62;20466;-65
2024/04/23 09:37:18;0.00;0.00;0.62;0.00;0.00;0.62;9.40;7.60;;;21.00;18.50;;;;;;2041047;62;20449;-64
2024/04/23 09:40:03;0.00;0.00;0.62;0.00;0.00;0.62;10.40;7.70;;;21.00;18.00;;;;;;2041045;62;20462;-65
2024/04/23 09:42:52;0.00;0.00;0.62;0.00;0.00;0.62;9.33;8.37;;;21.00;18.00;;;;;;2041152;62;21046;-64
2024/04/23 09:45:37;0.00;0.00;0.62;0.00;0.00;0.62;10.73;7.30;;;21.00;18.00;;;;;;2041136;62;20461;-64
2024/04/23 09:48:31;0.00;0.00;0.62;0.00;0.00;0.62;10.17;8.17;;;21.00;18.00;;;;;;2036943;62;20540;-65
2024/04/23 09:51:19;0.00;0.00;0.62;0.00;0.00;0.62;10.33;8.33;;;21.00;18.00;;;;;;2040990;62;20527;-65
2024/04/23 09:54:04;0.00;0.00;0.62;0.00;0.00;0.62;9.90;8.07;;;21.00;18.00;;;;;;2040998;62;21212;-64
2024/04/23 09:57:00;0.00;0.00;0.62;0.00;0.00;0.62;9.07;7.17;;;21.10;18.10;;;;;;2041143;62;20999;-65
2024/04/23 09:59:45;0.00;0.00;0.62;0.00;0.00;0.62;8.63;7.43;;;21.00;18.00;;;;;;2041425;62;20535;-64
2024/04/23 10:02:32;0.00;0.00;0.62;0.00;0.00;0.62;8.80;6.70;;;21.10;18.10;;;;;;2041004;62;20466;-65
2024/04/23 10:05:27;0.00;0.00;0.62;0.00;0.00;0.62;8.17;7.37;;;21.10;18.10;;;;;;2041145;62;20607;-64
2024/04/23 10:08:16;0.00;0.00;0.62;0.00;0.00;0.62;8.17;7.27;;;21.10;18.10;;;;;;2037121;62;20485;-65
2024/04/23 10:11:05;0.00;0.00;0.62;0.00;0.00;0.62;8.73;7.37;;;21.10;18.10;;;;;;2040836;62;20543;-65
2024/04/23 10:13:54;0.00;0.00;0.62;0.00;0.00;0.62;9.13;7.90;;;21.10;18.10;;;;;;2049600;62;20463;-65
2024/04/23 10:16:47;0.00;0.00;0.62;0.00;0.00;0.62;8.10;6.90;;;21.20;18.20;;;;;;2046946;54;20468;-65
2024/04/23 10:19:32;0.00;0.00;0.62;0.00;0.00;0.62;9.77;6.73;;;21.20;18.80;;;;;;2046614;62;21024;-65
2024/04/23 10:22:20;0.00;0.00;0.62;0.00;0.00;0.62;8.67;7.70;;;21.20;18.20;;;;;;2046550;62;20835;-65
2024/04/23 10:25:06;0.00;0.00;0.62;0.00;0.00;0.62;8.67;7.17;;;21.20;18.20;;;;;;2046804;62;20538;-65
2024/04/23 10:27:52;0.00;0.00;0.62;0.00;0.00;0.62;10.07;7.10;;;21.20;18.20;;;;;;2046657;62;20518;-65
2024/04/23 10:30:38;0.00;0.00;0.62;0.00;0.00;0.62;8.37;6.13;;;21.20;18.70;;;;;;2046754;62;20467;-65
2024/04/23 10:33:23;0.00;0.00;0.62;0.00;0.00;0.62;8.30;7.33;;;21.20;18.20;;;;;;2046919;62;20468;-65
2024/04/23 10:36:10;0.00;0.00;0.62;0.00;0.00;0.62;6.53;5.67;;;21.20;18.20;;;;;;2046900;62;21014;-65
2024/04/23 10:38:59;0.00;0.00;0.62;0.00;0.00;0.62;8.13;7.27;;;21.20;18.20;;;;;;2046665;62;20464;-65
2024/04/23 10:41:46;0.00;0.00;0.62;0.00;0.00;0.62;7.80;6.43;;;21.20;18.20;;;;;;2046424;62;20515;-66
2024/04/23 10:44:31;0.00;0.00;0.62;0.00;0.00;0.62;8.37;6.70;;;21.30;18.20;;;;;;2046854;62;20464;-64
2024/04/23 10:47:16;0.00;0.00;0.62;0.00;0.00;0.62;8.60;6.87;;;21.30;18.30;;;;;;2046791;62;20802;-65
2024/04/23 10:50:06;0.00;0.00;0.62;0.00;0.00;0.62;8.37;6.63;;;21.30;18.30;;;;;;2046658;62;20883;-65
2024/04/23 10:52:55;0.00;0.00;0.62;0.00;0.00;0.62;8.23;6.67;;;21.30;18.30;;;;;;2046838;62;20476;-65
2024/04/23 10:55:50;0.00;0.00;0.62;0.00;0.00;0.62;7.27;6.43;;;21.30;18.30;;;;;;2046944;62;20469;-65
2024/04/23 10:58:36;0.00;0.00;0.62;0.00;0.00;0.62;7.53;6.63;;;21.30;18.30;;;;;;2046660;54;21089;-65
2024/04/23 11:01:23;0.00;0.00;0.62;0.00;0.00;0.62;6.43;5.77;;;21.30;18.20;;;;;;2046538;62;20465;-65
2024/04/23 11:04:08;0.00;0.00;0.62;0.00;0.00;0.62;8.97;5.70;;;21.30;18.20;;;;;;2046739;62;20464;-65
2024/04/23 11:07:01;0.00;0.00;0.62;0.00;0.00;0.62;6.50;5.40;;;21.40;18.30;;;;;;2046751;62;21163;-65